sensor_id;sensor_type;location;lat;lon;timestamp;P1;durP1;ratioP1;P2;durP2;ratioP2
11048;SDS011;5577;42.706;23.160;2022-10-04T00:01:57;2.33;;;2.13;;
11048;SDS011;5577;42.706;23.160;2022-10-04T00:07:34;2.73;;;2.40;;
11048;SDS011;5577;42.706;23.160;2022-10-04T00:10:32;4.23;;;2.20;;
11048;SDS011;5577;42.706;23.160;2022-10-04T00:13:22;2.77;;;2.10;;
11048;SDS011;5577;42.706;23.160;2022-10-04T00:16:08;4.57;;;2.10;;
11048;SDS011;5577;42.706;23.160;2022-10-04T00:36:55;2.10;;;2.00;;
11048;SDS011;5577;42.706;23.160;2022-10-04T00:39:40;3.07;;;1.80;;
11048;SDS011;5577;42.706;23.160;2022-10-04T00:46:29;2.10;;;1.97;;
11048;SDS011;5577;42.706;23.160;2022-10-04T00:49:08;2.43;;;2.00;;
11048;SDS011;5577;42.706;23.160;2022-10-04T00:52:11;2.50;;;1.93;;
11048;SDS011;5577;42.706;23.160;2022-10-04T00:55:04;2.13;;;1.80;;
11048;SDS011;5577;42.706;23.160;2022-10-04T00:57:53;2.17;;;1.90;;
11048;SDS011;5577;42.706;23.160;2022-10-04T01:00:42;3.20;;;2.00;;
11048;SDS011;5577;42.706;23.160;2022-10-04T01:03:28;2.27;;;1.90;;
11048;SDS011;5577;42.706;23.160;2022-10-04T01:06:15;2.07;;;1.87;;
11048;SDS011;5577;42.706;23.160;2022-10-04T01:09:04;2.27;;;2.10;;
11048;SDS011;5577;42.706;23.160;2022-10-04T01:11:59;2.47;;;1.73;;
11048;SDS011;5577;42.706;23.160;2022-10-04T01:18:07;4.47;;;2.03;;
11048;SDS011;5577;42.706;23.160;2022-10-04T01:29:17;4.37;;;1.77;;
11048;SDS011;5577;42.706;23.160;2022-10-04T01:32:08;2.13;;;1.80;;
11048;SDS011;5577;42.706;23.160;2022-10-04T01:34:52;2.63;;;1.67;;
11048;SDS011;5577;42.706;23.160;2022-10-04T01:37:36;1.80;;;1.70;;
11048;SDS011;5577;42.706;23.160;2022-10-04T01:40:22;2.13;;;1.70;;
11048;SDS011;5577;42.706;23.160;2022-10-04T01:43:06;1.93;;;1.83;;
11048;SDS011;5577;42.706;23.160;2022-10-04T01:45:57;2.30;;;1.70;;
11048;SDS011;5577;42.706;23.160;2022-10-04T01:48:45;2.47;;;1.90;;
11048;SDS011;5577;42.706;23.160;2022-10-04T01:51:30;2.33;;;1.70;;
11048;SDS011;5577;42.706;23.160;2022-10-04T01:54:22;1.93;;;1.67;;
11048;SDS011;5577;42.706;23.160;2022-10-04T01:57:19;1.60;;;1.50;;
11048;SDS011;5577;42.706;23.160;2022-10-04T02:00:08;3.30;;;1.80;;
11048;SDS011;5577;42.706;23.160;2022-10-04T02:03:04;2.97;;;1.57;;
11048;SDS011;5577;42.706;23.160;2022-10-04T02:06:06;1.80;;;1.70;;
11048;SDS011;5577;42.706;23.160;2022-10-04T02:08:52;3.20;;;1.80;;
11048;SDS011;5577;42.706;23.160;2022-10-04T02:11:40;4.43;;;1.83;;
11048;SDS011;5577;42.706;23.160;2022-10-04T02:14:28;2.13;;;2.00;;
11048;SDS011;5577;42.706;23.160;2022-10-04T02:17:21;2.43;;;1.87;;
11048;SDS011;5577;42.706;23.160;2022-10-04T02:20:13;5.30;;;2.07;;
11048;SDS011;5577;42.706;23.160;2022-10-04T02:22:59;2.00;;;1.90;;
11048;SDS011;5577;42.706;23.160;2022-10-04T02:25:46;2.83;;;2.10;;
11048;SDS011;5577;42.706;23.160;2022-10-04T02:28:31;2.50;;;1.90;;
11048;SDS011;5577;42.706;23.160;2022-10-04T02:31:18;2.17;;;1.97;;
11048;SDS011;5577;42.706;23.160;2022-10-04T02:34:23;2.87;;;2.00;;
11048;SDS011;5577;42.706;23.160;2022-10-04T02:37:07;2.20;;;2.10;;
11048;SDS011;5577;42.706;23.160;2022-10-04T02:39:53;2.70;;;2.13;;
11048;SDS011;5577;42.706;23.160;2022-10-04T02:42:48;3.17;;;1.97;;
11048;SDS011;5577;42.706;23.160;2022-10-04T02:45:45;2.27;;;2.17;;
11048;SDS011;5577;42.706;23.160;2022-10-04T02:48:39;2.43;;;2.23;;
11048;SDS011;5577;42.706;23.160;2022-10-04T02:51:31;3.90;;;2.13;;
11048;SDS011;5577;42.706;23.160;2022-10-04T02:57:40;2.13;;;1.93;;
11048;SDS011;5577;42.706;23.160;2022-10-04T03:00:28;3.70;;;1.90;;
11048;SDS011;5577;42.706;23.160;2022-10-04T03:08:54;2.47;;;2.27;;
11048;SDS011;5577;42.706;23.160;2022-10-04T03:11:41;2.03;;;1.93;;
11048;SDS011;5577;42.706;23.160;2022-10-04T03:14:26;2.27;;;1.90;;
11048;SDS011;5577;42.706;23.160;2022-10-04T03:17:12;2.60;;;2.20;;
11048;SDS011;5577;42.706;23.160;2022-10-04T03:19:58;4.00;;;2.10;;
11048;SDS011;5577;42.706;23.160;2022-10-04T03:22:43;2.10;;;1.97;;
11048;SDS011;5577;42.706;23.160;2022-10-04T03:25:29;2.30;;;2.07;;
11048;SDS011;5577;42.706;23.160;2022-10-04T03:28:24;2.37;;;2.17;;
11048;SDS011;5577;42.706;23.160;2022-10-04T03:31:12;2.23;;;2.03;;
11048;SDS011;5577;42.706;23.160;2022-10-04T03:33:57;2.60;;;2.10;;
11048;SDS011;5577;42.706;23.160;2022-10-04T03:36:41;2.40;;;2.20;;
11048;SDS011;5577;42.706;23.160;2022-10-04T03:39:47;2.40;;;2.20;;
11048;SDS011;5577;42.706;23.160;2022-10-04T03:42:35;2.30;;;2.20;;
11048;SDS011;5577;42.706;23.160;2022-10-04T03:45:21;4.10;;;2.10;;
11048;SDS011;5577;42.706;23.160;2022-10-04T03:48:07;2.13;;;2.03;;
11048;SDS011;5577;42.706;23.160;2022-10-04T03:50:56;3.40;;;2.40;;
11048;SDS011;5577;42.706;23.160;2022-10-04T03:53:42;3.20;;;2.50;;
11048;SDS011;5577;42.706;23.160;2022-10-04T03:56:29;2.30;;;2.10;;
11048;SDS011;5577;42.706;23.160;2022-10-04T03:59:16;2.63;;;2.33;;
11048;SDS011;5577;42.706;23.160;2022-10-04T04:05:13;3.60;;;2.50;;
11048;SDS011;5577;42.706;23.160;2022-10-04T04:10:47;2.30;;;2.10;;
11048;SDS011;5577;42.706;23.160;2022-10-04T04:17:39;3.10;;;2.20;;
11048;SDS011;5577;42.706;23.160;2022-10-04T04:20:23;5.07;;;2.30;;
11048;SDS011;5577;42.706;23.160;2022-10-04T04:25:54;2.70;;;2.50;;
11048;SDS011;5577;42.706;23.160;2022-10-04T04:28:45;3.87;;;2.37;;
11048;SDS011;5577;42.706;23.160;2022-10-04T04:34:27;3.80;;;2.70;;
11048;SDS011;5577;42.706;23.160;2022-10-04T04:37:17;3.10;;;2.90;;
11048;SDS011;5577;42.706;23.160;2022-10-04T04:40:21;5.37;;;2.90;;
11048;SDS011;5577;42.706;23.160;2022-10-04T04:43:08;3.10;;;2.70;;
11048;SDS011;5577;42.706;23.160;2022-10-04T04:45:59;3.83;;;2.87;;
11048;SDS011;5577;42.706;23.160;2022-10-04T04:48:45;3.27;;;2.97;;
11048;SDS011;5577;42.706;23.160;2022-10-04T04:51:31;3.47;;;3.10;;
11048;SDS011;5577;42.706;23.160;2022-10-04T04:54:16;3.53;;;3.20;;
11048;SDS011;5577;42.706;23.160;2022-10-04T04:57:05;4.87;;;3.10;;
11048;SDS011;5577;42.706;23.160;2022-10-04T04:59:54;2.90;;;2.70;;
11048;SDS011;5577;42.706;23.160;2022-10-04T05:02:41;4.27;;;2.80;;
11048;SDS011;5577;42.706;23.160;2022-10-04T05:05:34;2.60;;;2.40;;
11048;SDS011;5577;42.706;23.160;2022-10-04T05:08:25;2.87;;;2.60;;
11048;SDS011;5577;42.706;23.160;2022-10-04T05:11:11;3.77;;;2.70;;
11048;SDS011;5577;42.706;23.160;2022-10-04T05:14:03;2.70;;;2.50;;
11048;SDS011;5577;42.706;23.160;2022-10-04T05:16:52;2.80;;;2.57;;
11048;SDS011;5577;42.706;23.160;2022-10-04T05:19:38;4.23;;;2.60;;
11048;SDS011;5577;42.706;23.160;2022-10-04T05:22:22;3.17;;;2.87;;
11048;SDS011;5577;42.706;23.160;2022-10-04T05:25:12;3.50;;;3.20;;
11048;SDS011;5577;42.706;23.160;2022-10-04T05:28:01;4.23;;;3.00;;
11048;SDS011;5577;42.706;23.160;2022-10-04T05:33:48;3.20;;;2.90;;
11048;SDS011;5577;42.706;23.160;2022-10-04T05:36:40;3.73;;;2.70;;
11048;SDS011;5577;42.706;23.160;2022-10-04T05:39:56;2.80;;;2.50;;
11048;SDS011;5577;42.706;23.160;2022-10-04T05:42:56;4.07;;;2.50;;
11048;SDS011;5577;42.706;23.160;2022-10-04T05:45:42;2.80;;;2.60;;
11048;SDS011;5577;42.706;23.160;2022-10-04T05:48:27;3.40;;;2.60;;
11048;SDS011;5577;42.706;23.160;2022-10-04T05:51:13;2.57;;;2.47;;
11048;SDS011;5577;42.706;23.160;2022-10-04T05:54:02;3.00;;;2.70;;
11048;SDS011;5577;42.706;23.160;2022-10-04T06:05:53;2.60;;;2.40;;
11048;SDS011;5577;42.706;23.160;2022-10-04T06:15:06;2.80;;;2.40;;
11048;SDS011;5577;42.706;23.160;2022-10-04T06:21:21;2.70;;;2.50;;
11048;SDS011;5577;42.706;23.160;2022-10-04T06:24:12;3.27;;;2.80;;
11048;SDS011;5577;42.706;23.160;2022-10-04T06:27:04;2.77;;;2.57;;
11048;SDS011;5577;42.706;23.160;2022-10-04T06:30:01;2.70;;;2.50;;
11048;SDS011;5577;42.706;23.160;2022-10-04T06:32:53;2.47;;;2.27;;
11048;SDS011;5577;42.706;23.160;2022-10-04T06:46:08;2.80;;;2.50;;
11048;SDS011;5577;42.706;23.160;2022-10-04T06:54:57;2.73;;;2.43;;
11048;SDS011;5577;42.706;23.160;2022-10-04T07:01:29;2.50;;;2.30;;
11048;SDS011;5577;42.706;23.160;2022-10-04T07:07:41;2.90;;;2.40;;
11048;SDS011;5577;42.706;23.160;2022-10-04T07:10:31;3.53;;;2.40;;
11048;SDS011;5577;42.706;23.160;2022-10-04T07:16:21;3.40;;;3.17;;
11048;SDS011;5577;42.706;23.160;2022-10-04T07:22:36;3.33;;;2.60;;
11048;SDS011;5577;42.706;23.160;2022-10-04T07:25:31;2.30;;;2.20;;
11048;SDS011;5577;42.706;23.160;2022-10-04T07:28:24;2.27;;;2.10;;
11048;SDS011;5577;42.706;23.160;2022-10-04T07:31:34;2.50;;;2.30;;
11048;SDS011;5577;42.706;23.160;2022-10-04T07:34:26;2.53;;;2.43;;
11048;SDS011;5577;42.706;23.160;2022-10-04T07:37:13;2.63;;;2.43;;
11048;SDS011;5577;42.706;23.160;2022-10-04T07:43:05;2.30;;;2.20;;
11048;SDS011;5577;42.706;23.160;2022-10-04T07:46:01;2.33;;;2.23;;
11048;SDS011;5577;42.706;23.160;2022-10-04T07:48:49;2.23;;;2.10;;
11048;SDS011;5577;42.706;23.160;2022-10-04T07:51:39;2.00;;;1.90;;
11048;SDS011;5577;42.706;23.160;2022-10-04T07:54:32;2.10;;;2.00;;
11048;SDS011;5577;42.706;23.160;2022-10-04T07:57:29;2.20;;;2.10;;
11048;SDS011;5577;42.706;23.160;2022-10-04T08:06:56;1.80;;;1.70;;
11048;SDS011;5577;42.706;23.160;2022-10-04T08:09:48;1.80;;;1.70;;
11048;SDS011;5577;42.706;23.160;2022-10-04T08:15:41;2.10;;;2.00;;
11048;SDS011;5577;42.706;23.160;2022-10-04T08:18:46;2.50;;;2.30;;
11048;SDS011;5577;42.706;23.160;2022-10-04T08:37:40;2.13;;;1.93;;
11048;SDS011;5577;42.706;23.160;2022-10-04T09:16:47;1.70;;;1.60;;
11048;SDS011;5577;42.706;23.160;2022-10-04T09:19:44;2.17;;;1.97;;
11048;SDS011;5577;42.706;23.160;2022-10-04T09:59:18;2.77;;;2.57;;
11048;SDS011;5577;42.706;23.160;2022-10-04T10:15:02;2.50;;;2.30;;
11048;SDS011;5577;42.706;23.160;2022-10-04T10:18:10;2.87;;;2.30;;
11048;SDS011;5577;42.706;23.160;2022-10-04T10:21:47;2.60;;;2.50;;
11048;SDS011;5577;42.706;23.160;2022-10-04T10:24:25;2.20;;;2.10;;
11048;SDS011;5577;42.706;23.160;2022-10-04T10:37:16;2.10;;;2.00;;
11048;SDS011;5577;42.706;23.160;2022-10-04T11:33:00;3.50;;;3.20;;
11048;SDS011;5577;42.706;23.160;2022-10-04T11:38:46;2.80;;;2.60;;
11048;SDS011;5577;42.706;23.160;2022-10-04T11:44:56;2.90;;;2.70;;
11048;SDS011;5577;42.706;23.160;2022-10-04T11:48:19;2.80;;;2.60;;
11048;SDS011;5577;42.706;23.160;2022-10-04T12:10:40;3.90;;;2.60;;
11048;SDS011;5577;42.706;23.160;2022-10-04T12:13:31;2.50;;;2.30;;
11048;SDS011;5577;42.706;23.160;2022-10-04T12:16:39;2.97;;;2.63;;
11048;SDS011;5577;42.706;23.160;2022-10-04T12:41:29;3.13;;;2.80;;
11048;SDS011;5577;42.706;23.160;2022-10-04T12:47:42;3.90;;;3.40;;
11048;SDS011;5577;42.706;23.160;2022-10-04T12:50:41;3.30;;;3.10;;
11048;SDS011;5577;42.706;23.160;2022-10-04T12:53:35;3.40;;;3.10;;
11048;SDS011;5577;42.706;23.160;2022-10-04T13:06:22;3.50;;;3.13;;
11048;SDS011;5577;42.706;23.160;2022-10-04T13:09:34;3.10;;;2.80;;
11048;SDS011;5577;42.706;23.160;2022-10-04T13:21:57;2.90;;;2.70;;
11048;SDS011;5577;42.706;23.160;2022-10-04T13:25:34;2.50;;;2.40;;
11048;SDS011;5577;42.706;23.160;2022-10-04T13:37:41;2.60;;;2.40;;
11048;SDS011;5577;42.706;23.160;2022-10-04T13:56:02;2.97;;;2.70;;
11048;SDS011;5577;42.706;23.160;2022-10-04T14:24:21;5.63;;;3.80;;
11048;SDS011;5577;42.706;23.160;2022-10-04T14:44:04;3.67;;;3.37;;
11048;SDS011;5577;42.706;23.160;2022-10-04T14:47:20;3.90;;;3.50;;
11048;SDS011;5577;42.706;23.160;2022-10-04T14:50:32;5.27;;;3.97;;
11048;SDS011;5577;42.706;23.160;2022-10-04T15:03:10;6.13;;;4.70;;
11048;SDS011;5577;42.706;23.160;2022-10-04T15:06:23;4.90;;;4.40;;
11048;SDS011;5577;42.706;23.160;2022-10-04T15:09:41;5.40;;;4.77;;
11048;SDS011;5577;42.706;23.160;2022-10-04T15:24:29;11.30;;;7.77;;
11048;SDS011;5577;42.706;23.160;2022-10-04T15:33:07;7.87;;;5.23;;
11048;SDS011;5577;42.706;23.160;2022-10-04T15:38:50;7.67;;;6.60;;
11048;SDS011;5577;42.706;23.160;2022-10-04T15:56:34;5.20;;;4.70;;
11048;SDS011;5577;42.706;23.160;2022-10-04T15:59:50;6.23;;;5.00;;
11048;SDS011;5577;42.706;23.160;2022-10-04T16:05:41;5.70;;;4.23;;
11048;SDS011;5577;42.706;23.160;2022-10-04T16:11:46;6.83;;;5.63;;
11048;SDS011;5577;42.706;23.160;2022-10-04T16:21:25;5.93;;;4.90;;
11048;SDS011;5577;42.706;23.160;2022-10-04T16:24:59;5.03;;;4.43;;
11048;SDS011;5577;42.706;23.160;2022-10-04T16:27:41;4.40;;;4.00;;
11048;SDS011;5577;42.706;23.160;2022-10-04T16:37:03;4.80;;;3.80;;
11048;SDS011;5577;42.706;23.160;2022-10-04T16:43:10;8.27;;;5.00;;
11048;SDS011;5577;42.706;23.160;2022-10-04T16:48:54;5.50;;;4.53;;
11048;SDS011;5577;42.706;23.160;2022-10-04T16:54:39;5.53;;;5.03;;
11048;SDS011;5577;42.706;23.160;2022-10-04T16:57:40;6.73;;;5.00;;
11048;SDS011;5577;42.706;23.160;2022-10-04T17:00:35;6.53;;;5.60;;
11048;SDS011;5577;42.706;23.160;2022-10-04T17:03:29;8.37;;;6.90;;
11048;SDS011;5577;42.706;23.160;2022-10-04T17:06:24;8.23;;;6.43;;
11048;SDS011;5577;42.706;23.160;2022-10-04T17:09:17;8.07;;;6.23;;
11048;SDS011;5577;42.706;23.160;2022-10-04T17:12:16;7.20;;;5.80;;
11048;SDS011;5577;42.706;23.160;2022-10-04T17:20:59;11.47;;;7.07;;
11048;SDS011;5577;42.706;23.160;2022-10-04T17:30:20;13.03;;;10.83;;
11048;SDS011;5577;42.706;23.160;2022-10-04T17:33:06;10.03;;;8.97;;
11048;SDS011;5577;42.706;23.160;2022-10-04T17:36:26;7.07;;;5.70;;
11048;SDS011;5577;42.706;23.160;2022-10-04T17:39:26;5.87;;;5.30;;
11048;SDS011;5577;42.706;23.160;2022-10-04T17:42:42;6.40;;;5.67;;
11048;SDS011;5577;42.706;23.160;2022-10-04T17:45:41;5.93;;;5.33;;
11048;SDS011;5577;42.706;23.160;2022-10-04T17:48:30;6.43;;;5.93;;
11048;SDS011;5577;42.706;23.160;2022-10-04T17:51:47;6.80;;;5.63;;
11048;SDS011;5577;42.706;23.160;2022-10-04T17:54:54;6.70;;;5.93;;
11048;SDS011;5577;42.706;23.160;2022-10-04T17:58:11;6.60;;;5.83;;
11048;SDS011;5577;42.706;23.160;2022-10-04T18:01:11;8.27;;;6.93;;
11048;SDS011;5577;42.706;23.160;2022-10-04T18:07:04;11.80;;;10.03;;
11048;SDS011;5577;42.706;23.160;2022-10-04T18:10:00;9.30;;;8.50;;
11048;SDS011;5577;42.706;23.160;2022-10-04T18:12:58;10.83;;;9.27;;
11048;SDS011;5577;42.706;23.160;2022-10-04T18:19:03;11.37;;;8.37;;
11048;SDS011;5577;42.706;23.160;2022-10-04T18:22:18;9.23;;;8.23;;
11048;SDS011;5577;42.706;23.160;2022-10-04T18:25:13;11.23;;;8.90;;
11048;SDS011;5577;42.706;23.160;2022-10-04T18:30:52;15.10;;;10.97;;
11048;SDS011;5577;42.706;23.160;2022-10-04T18:43:40;13.57;;;11.33;;
11048;SDS011;5577;42.706;23.160;2022-10-04T18:46:38;15.17;;;10.57;;
11048;SDS011;5577;42.706;23.160;2022-10-04T18:49:30;12.87;;;10.80;;
11048;SDS011;5577;42.706;23.160;2022-10-04T18:58:49;9.27;;;7.93;;
11048;SDS011;5577;42.706;23.160;2022-10-04T19:02:30;8.30;;;5.53;;
11048;SDS011;5577;42.706;23.160;2022-10-04T19:05:25;5.00;;;4.47;;
11048;SDS011;5577;42.706;23.160;2022-10-04T19:11:06;5.77;;;4.70;;
11048;SDS011;5577;42.706;23.160;2022-10-04T19:26:48;5.77;;;5.23;;
11048;SDS011;5577;42.706;23.160;2022-10-04T19:29:39;7.70;;;6.97;;
11048;SDS011;5577;42.706;23.160;2022-10-04T19:35:36;7.30;;;6.60;;
11048;SDS011;5577;42.706;23.160;2022-10-04T19:41:50;6.60;;;5.87;;
11048;SDS011;5577;42.706;23.160;2022-10-04T19:45:00;6.30;;;5.70;;
11048;SDS011;5577;42.706;23.160;2022-10-04T19:48:00;6.17;;;5.17;;
11048;SDS011;5577;42.706;23.160;2022-10-04T19:50:52;8.00;;;5.80;;
11048;SDS011;5577;42.706;23.160;2022-10-04T19:53:44;4.73;;;4.33;;
11048;SDS011;5577;42.706;23.160;2022-10-04T19:56:33;5.47;;;4.97;;
11048;SDS011;5577;42.706;23.160;2022-10-04T20:02:25;5.50;;;5.00;;
11048;SDS011;5577;42.706;23.160;2022-10-04T20:05:13;8.90;;;6.13;;
11048;SDS011;5577;42.706;23.160;2022-10-04T20:07:58;5.53;;;5.03;;
11048;SDS011;5577;42.706;23.160;2022-10-04T20:10:47;5.10;;;4.60;;
11048;SDS011;5577;42.706;23.160;2022-10-04T20:13:31;5.50;;;5.00;;
11048;SDS011;5577;42.706;23.160;2022-10-04T20:16:15;6.97;;;5.90;;
11048;SDS011;5577;42.706;23.160;2022-10-04T20:19:40;6.67;;;5.90;;
11048;SDS011;5577;42.706;23.160;2022-10-04T20:22:26;7.07;;;5.57;;
11048;SDS011;5577;42.706;23.160;2022-10-04T20:25:12;6.17;;;5.57;;
11048;SDS011;5577;42.706;23.160;2022-10-04T20:37:15;7.40;;;6.10;;
11048;SDS011;5577;42.706;23.160;2022-10-04T20:40:01;7.57;;;5.40;;
11048;SDS011;5577;42.706;23.160;2022-10-04T20:42:45;6.50;;;5.90;;
11048;SDS011;5577;42.706;23.160;2022-10-04T20:45:52;6.77;;;6.07;;
11048;SDS011;5577;42.706;23.160;2022-10-04T20:48:37;7.77;;;5.43;;
11048;SDS011;5577;42.706;23.160;2022-10-04T20:51:26;6.17;;;5.00;;
11048;SDS011;5577;42.706;23.160;2022-10-04T20:54:18;5.70;;;5.13;;
11048;SDS011;5577;42.706;23.160;2022-10-04T20:57:03;7.40;;;5.93;;
11048;SDS011;5577;42.706;23.160;2022-10-04T20:59:47;6.97;;;5.57;;
11048;SDS011;5577;42.706;23.160;2022-10-04T21:02:37;8.37;;;5.80;;
11048;SDS011;5577;42.706;23.160;2022-10-04T21:05:21;7.17;;;6.43;;
11048;SDS011;5577;42.706;23.160;2022-10-04T21:08:10;6.83;;;5.93;;
11048;SDS011;5577;42.706;23.160;2022-10-04T21:11:09;6.00;;;5.40;;
11048;SDS011;5577;42.706;23.160;2022-10-04T21:14:01;6.33;;;5.60;;
11048;SDS011;5577;42.706;23.160;2022-10-04T21:16:46;5.93;;;5.03;;
11048;SDS011;5577;42.706;23.160;2022-10-04T21:24:59;5.73;;;5.13;;
11048;SDS011;5577;42.706;23.160;2022-10-04T21:27:46;5.70;;;4.80;;
11048;SDS011;5577;42.706;23.160;2022-10-04T21:30:30;5.50;;;5.00;;
11048;SDS011;5577;42.706;23.160;2022-10-04T21:33:14;5.53;;;4.77;;
11048;SDS011;5577;42.706;23.160;2022-10-04T21:35:58;5.40;;;4.40;;
11048;SDS011;5577;42.706;23.160;2022-10-04T21:38:42;5.47;;;4.67;;
11048;SDS011;5577;42.706;23.160;2022-10-04T21:41:26;5.30;;;4.80;;
11048;SDS011;5577;42.706;23.160;2022-10-04T21:44:10;7.47;;;5.20;;
11048;SDS011;5577;42.706;23.160;2022-10-04T21:46:55;4.73;;;4.33;;
11048;SDS011;5577;42.706;23.160;2022-10-04T21:49:39;4.83;;;4.33;;
11048;SDS011;5577;42.706;23.160;2022-10-04T21:52:23;5.90;;;4.90;;
11048;SDS011;5577;42.706;23.160;2022-10-04T21:55:07;7.43;;;4.70;;
11048;SDS011;5577;42.706;23.160;2022-10-04T21:57:53;6.17;;;5.03;;
11048;SDS011;5577;42.706;23.160;2022-10-04T22:00:37;7.10;;;5.03;;
11048;SDS011;5577;42.706;23.160;2022-10-04T22:03:21;5.03;;;4.57;;
11048;SDS011;5577;42.706;23.160;2022-10-04T22:06:05;5.23;;;4.67;;
11048;SDS011;5577;42.706;23.160;2022-10-04T22:08:49;5.30;;;4.80;;
11048;SDS011;5577;42.706;23.160;2022-10-04T22:11:33;5.80;;;5.30;;
11048;SDS011;5577;42.706;23.160;2022-10-04T22:14:17;5.80;;;4.67;;
11048;SDS011;5577;42.706;23.160;2022-10-04T22:17:01;5.93;;;5.33;;
11048;SDS011;5577;42.706;23.160;2022-10-04T22:19:45;6.73;;;5.10;;
11048;SDS011;5577;42.706;23.160;2022-10-04T22:22:29;5.60;;;5.10;;
11048;SDS011;5577;42.706;23.160;2022-10-04T22:25:14;5.83;;;5.33;;
11048;SDS011;5577;42.706;23.160;2022-10-04T22:28:00;5.87;;;5.33;;
11048;SDS011;5577;42.706;23.160;2022-10-04T22:30:44;7.17;;;5.30;;
11048;SDS011;5577;42.706;23.160;2022-10-04T22:33:31;6.03;;;5.43;;
11048;SDS011;5577;42.706;23.160;2022-10-04T22:36:21;7.73;;;5.37;;
11048;SDS011;5577;42.706;23.160;2022-10-04T22:41:56;5.90;;;5.30;;
11048;SDS011;5577;42.706;23.160;2022-10-04T22:44:43;7.07;;;5.50;;
11048;SDS011;5577;42.706;23.160;2022-10-04T22:47:27;7.40;;;5.73;;
11048;SDS011;5577;42.706;23.160;2022-10-04T22:50:12;6.87;;;5.60;;
11048;SDS011;5577;42.706;23.160;2022-10-04T22:53:10;7.37;;;5.87;;
11048;SDS011;5577;42.706;23.160;2022-10-04T22:55:56;7.70;;;5.57;;
11048;SDS011;5577;42.706;23.160;2022-10-04T22:58:41;6.07;;;5.20;;
11048;SDS011;5577;42.706;23.160;2022-10-04T23:01:25;6.90;;;5.63;;
11048;SDS011;5577;42.706;23.160;2022-10-04T23:04:11;6.00;;;5.50;;
11048;SDS011;5577;42.706;23.160;2022-10-04T23:07:01;6.80;;;5.43;;
11048;SDS011;5577;42.706;23.160;2022-10-04T23:09:45;8.30;;;5.33;;
11048;SDS011;5577;42.706;23.160;2022-10-04T23:12:28;9.33;;;5.53;;
11048;SDS011;5577;42.706;23.160;2022-10-04T23:15:13;5.77;;;5.20;;
11048;SDS011;5577;42.706;23.160;2022-10-04T23:17:59;7.50;;;5.47;;
11048;SDS011;5577;42.706;23.160;2022-10-04T23:20:43;6.70;;;5.63;;
11048;SDS011;5577;42.706;23.160;2022-10-04T23:23:33;5.57;;;5.00;;
11048;SDS011;5577;42.706;23.160;2022-10-04T23:26:21;5.57;;;5.07;;
11048;SDS011;5577;42.706;23.160;2022-10-04T23:29:13;6.03;;;5.37;;
11048;SDS011;5577;42.706;23.160;2022-10-04T23:32:16;5.73;;;4.97;;
11048;SDS011;5577;42.706;23.160;2022-10-04T23:35:02;5.97;;;5.00;;
11048;SDS011;5577;42.706;23.160;2022-10-04T23:37:48;7.33;;;5.50;;
11048;SDS011;5577;42.706;23.160;2022-10-04T23:40:32;5.70;;;5.10;;
11048;SDS011;5577;42.706;23.160;2022-10-04T23:43:20;5.90;;;5.17;;
11048;SDS011;5577;42.706;23.160;2022-10-04T23:46:15;5.90;;;5.30;;
11048;SDS011;5577;42.706;23.160;2022-10-04T23:49:01;5.53;;;5.03;;
11048;SDS011;5577;42.706;23.160;2022-10-04T23:51:45;6.40;;;5.20;;
11048;SDS011;5577;42.706;23.160;2022-10-04T23:54:30;6.03;;;4.87;;
11048;SDS011;5577;42.706;23.160;2022-10-04T23:57:24;7.00;;;4.97;;
